createdAt,value
2022-08-30T00:01:25.482Z,17.50
2022-08-30T00:04:11.488Z,17.80
2022-08-30T00:06:57.560Z,17.85
2022-08-30T00:09:43.498Z,17.63
2022-08-30T00:12:29.567Z,17.51
2022-08-30T00:15:16.388Z,18.00
2022-08-30T00:18:02.411Z,17.96
2022-08-30T00:20:49.680Z,16.95
2022-08-30T00:23:35.487Z,17.17
2022-08-30T00:26:22.161Z,16.86
2022-08-30T00:29:08.092Z,18.07
2022-08-30T00:31:53.702Z,18.15
2022-08-30T00:34:39.602Z,17.97
2022-08-30T00:37:25.030Z,16.88
2022-08-30T00:40:12.310Z,17.04
2022-08-30T00:43:00.108Z,18.45
2022-08-30T00:45:52.235Z,18.54
2022-08-30T00:48:41.103Z,18.26
2022-08-30T00:51:27.728Z,18.56
2022-08-30T00:54:14.343Z,18.39
2022-08-30T00:57:00.622Z,18.53
2022-08-30T00:59:49.517Z,18.41
2022-08-30T01:02:35.537Z,17.54
2022-08-30T01:05:22.576Z,17.48
2022-08-30T01:08:08.281Z,17.30
2022-08-30T01:10:55.252Z,17.38
2022-08-30T01:13:41.372Z,17.90
2022-08-30T01:16:27.337Z,18.19
2022-08-30T01:19:32.267Z,18.05
2022-08-30T01:22:39.255Z,17.59
2022-08-30T01:25:30.318Z,17.86
2022-08-30T01:28:21.347Z,17.84
2022-08-30T01:31:08.706Z,17.76
2022-08-30T01:33:54.687Z,17.69
2022-08-30T01:36:45.188Z,16.93
2022-08-30T01:39:31.804Z,16.00
2022-08-30T01:42:18.329Z,16.66
2022-08-30T01:45:06.356Z,17.68
2022-08-30T01:47:52.764Z,17.03
2022-08-30T01:50:39.003Z,17.73
2022-08-30T01:53:26.218Z,17.73
2022-08-30T01:56:12.915Z,17.84
2022-08-30T01:59:02.565Z,17.69
2022-08-30T02:01:50.191Z,18.00
2022-08-30T02:04:36.832Z,16.95
2022-08-30T02:07:24.205Z,18.12
2022-08-30T02:10:10.777Z,18.09
2022-08-30T02:12:56.212Z,18.04
2022-08-30T02:15:42.349Z,17.99
2022-08-30T02:18:27.800Z,18.05
2022-08-30T02:21:14.101Z,17.84
2022-08-30T02:23:59.726Z,17.84
2022-08-30T02:26:45.314Z,18.04
2022-08-30T02:29:31.452Z,17.45
2022-08-30T02:32:17.556Z,17.64
2022-08-30T02:35:03.769Z,17.74
2022-08-30T02:37:49.570Z,16.53
2022-08-30T02:40:35.703Z,16.90
2022-08-30T02:43:25.332Z,17.51
2022-08-30T02:46:11.034Z,17.11
2022-08-30T02:48:58.629Z,17.31
2022-08-30T02:51:46.234Z,17.04
2022-08-30T02:54:33.324Z,17.19
2022-08-30T02:57:20.447Z,16.93
2022-08-30T03:00:09.973Z,16.95
2022-08-30T03:02:55.970Z,17.18
2022-08-30T03:05:41.837Z,17.11
2022-08-30T03:08:27.562Z,16.95
2022-08-30T03:11:13.821Z,16.99
2022-08-30T03:13:59.733Z,16.61
2022-08-30T03:16:45.333Z,17.22
2022-08-30T03:19:31.120Z,17.24
2022-08-30T03:22:16.995Z,17.26
2022-08-30T03:25:04.364Z,17.24
2022-08-30T03:27:50.775Z,17.12
2022-08-30T03:30:36.483Z,15.95
2022-08-30T03:33:22.163Z,16.95
2022-08-30T03:36:09.459Z,15.78
2022-08-30T03:38:55.519Z,16.29
2022-08-30T03:41:41.207Z,16.77
2022-08-30T03:44:27.283Z,17.10
2022-08-30T03:47:13.191Z,16.63
2022-08-30T03:49:58.822Z,17.16
2022-08-30T03:52:45.962Z,17.21
2022-08-30T03:55:31.514Z,16.44
2022-08-30T03:58:19.212Z,16.08
2022-08-30T04:01:05.280Z,17.12
2022-08-30T04:03:50.872Z,17.25
2022-08-30T04:06:36.422Z,17.21
2022-08-30T04:09:21.975Z,17.24
2022-08-30T04:12:08.361Z,16.92
2022-08-30T04:14:54.513Z,16.04
2022-08-30T04:17:40.519Z,17.04
2022-08-30T04:20:27.397Z,15.76
2022-08-30T04:23:13.862Z,15.79
2022-08-30T04:25:59.298Z,16.94
2022-08-30T04:28:44.765Z,16.40
2022-08-30T04:31:31.824Z,15.86
2022-08-30T04:34:17.686Z,16.79
2022-08-30T04:37:03.092Z,15.99
2022-08-30T04:39:50.682Z,16.57
2022-08-30T04:42:36.709Z,17.24
2022-08-30T04:45:23.051Z,16.99
2022-08-30T04:48:08.982Z,17.42
2022-08-30T04:50:54.758Z,17.55
2022-08-30T04:53:44.268Z,17.66
2022-08-30T04:56:29.809Z,16.57
2022-08-30T04:59:15.123Z,16.97
2022-08-30T05:02:02.006Z,17.77
2022-08-30T05:05:06.232Z,18.14
2022-08-30T05:07:52.129Z,18.20
2022-08-30T05:10:47.232Z,18.09
2022-08-30T05:13:35.274Z,19.10
2022-08-30T05:16:22.089Z,18.42
2022-08-30T05:19:08.233Z,19.79
2022-08-30T05:21:54.069Z,19.97
2022-08-30T05:24:39.265Z,20.07
2022-08-30T05:27:24.688Z,20.49
2022-08-30T05:30:11.548Z,20.64
2022-08-30T05:32:58.066Z,20.53
2022-08-30T05:35:43.927Z,20.00
2022-08-30T05:38:29.722Z,21.29
2022-08-30T05:41:15.161Z,21.31
2022-08-30T05:44:08.019Z,21.70
2022-08-30T05:46:54.809Z,21.80
2022-08-30T05:49:40.239Z,22.02
2022-08-30T05:52:26.192Z,22.18
2022-08-30T05:55:12.775Z,22.27
2022-08-30T05:57:59.537Z,22.53
2022-08-30T06:00:45.454Z,22.65
2022-08-30T06:03:33.018Z,22.85
2022-08-30T06:06:18.833Z,23.08
2022-08-30T06:09:06.148Z,23.21
2022-08-30T06:11:51.609Z,23.36
2022-08-30T06:14:39.093Z,23.52
2022-08-30T06:17:24.807Z,23.22
2022-08-30T06:20:11.222Z,22.87
2022-08-30T06:22:56.836Z,23.75
2022-08-30T06:25:42.491Z,23.83
2022-08-30T06:28:28.601Z,23.91
2022-08-30T06:31:15.934Z,23.90
2022-08-30T06:34:01.830Z,23.79
2022-08-30T06:36:47.596Z,23.76
2022-08-30T06:39:33.108Z,23.79
2022-08-30T06:42:19.360Z,23.89
2022-08-30T06:45:10.835Z,24.10
2022-08-30T06:50:54.149Z,24.28
2022-08-30T06:53:40.510Z,23.32
2022-08-30T06:56:27.712Z,24.33
2022-08-30T06:59:13.873Z,24.44
2022-08-30T07:01:59.901Z,24.28
2022-08-30T07:04:45.278Z,24.57
2022-08-30T07:07:30.656Z,23.64
2022-08-30T07:10:16.389Z,24.40
2022-08-30T07:13:01.974Z,23.46
2022-08-30T07:15:48.127Z,23.91
2022-08-30T07:18:54.998Z,24.47
2022-08-30T07:21:46.083Z,24.60
2022-08-30T07:24:31.801Z,24.56
2022-08-30T07:27:17.160Z,24.50
2022-08-30T07:30:03.578Z,24.43
2022-08-30T07:32:50.089Z,23.60
2022-08-30T07:35:37.229Z,23.66
2022-08-30T07:38:23.093Z,24.08
2022-08-30T07:41:08.650Z,23.33
2022-08-30T07:43:55.190Z,24.25
2022-08-30T07:46:41.805Z,24.28
2022-08-30T07:49:27.404Z,24.38
2022-08-30T07:52:12.978Z,24.46
2022-08-30T07:54:59.797Z,24.60
2022-08-30T07:57:45.210Z,24.49
2022-08-30T08:00:30.794Z,24.13
2022-08-30T08:03:16.412Z,24.48
2022-08-30T08:06:06.682Z,24.66
2022-08-30T08:08:53.775Z,24.00
2022-08-30T08:11:41.786Z,24.55
2022-08-30T08:14:28.499Z,24.42
2022-08-30T08:17:13.771Z,23.92
2022-08-30T08:20:01.477Z,24.68
2022-08-30T08:22:48.150Z,24.73
2022-08-30T08:25:38.964Z,24.47
2022-08-30T08:28:25.082Z,24.91
2022-08-30T08:31:19.957Z,24.88
2022-08-30T08:34:06.490Z,24.07
2022-08-30T08:36:52.899Z,24.50
2022-08-30T08:39:38.705Z,24.65
2022-08-30T08:43:15.570Z,24.81
2022-08-30T08:46:06.838Z,24.74
2022-08-30T08:49:00.489Z,24.52
2022-08-30T08:52:05.435Z,23.98
2022-08-30T08:55:01.980Z,24.81
2022-08-30T08:57:48.750Z,24.79
2022-08-30T09:00:35.808Z,24.76
2022-08-30T09:03:23.354Z,23.61
2022-08-30T09:06:45.208Z,24.43
2022-08-30T09:09:40.733Z,24.02
2022-08-30T09:12:27.894Z,24.17
2022-08-30T09:15:24.193Z,24.01
2022-08-30T09:21:24.555Z,23.36
2022-08-30T09:24:15.708Z,23.75
2022-08-30T09:27:17.086Z,23.78
2022-08-30T09:30:15.239Z,23.91
2022-08-30T09:33:06.177Z,24.09
2022-08-30T09:35:54.169Z,24.21
2022-08-30T09:38:40.677Z,24.14
2022-08-30T09:41:28.224Z,24.45
2022-08-30T09:44:20.305Z,24.44
2022-08-30T09:47:26.203Z,24.49
2022-08-30T09:50:21.168Z,24.30
2022-08-30T09:53:22.769Z,24.56
2022-08-30T09:56:13.008Z,24.61
2022-08-30T09:59:20.462Z,24.62
2022-08-30T10:02:28.870Z,24.56
2022-08-30T10:05:52.114Z,24.44
2022-08-30T10:08:47.612Z,24.35
2022-08-30T10:11:49.803Z,24.27
2022-08-30T10:14:54.646Z,24.32
2022-08-30T10:18:04.630Z,23.92
2022-08-30T10:20:58.681Z,24.76
2022-08-30T10:23:54.215Z,24.77
2022-08-30T10:26:57.703Z,24.04
2022-08-30T10:29:49.596Z,24.62
2022-08-30T10:33:09.865Z,24.77
2022-08-30T10:35:58.486Z,24.51
2022-08-30T10:38:53.762Z,23.79
2022-08-30T10:41:45.944Z,24.22
2022-08-30T10:44:38.157Z,24.87
2022-08-30T10:47:40.263Z,24.02
2022-08-30T10:50:39.044Z,25.07
2022-08-30T10:53:37.147Z,24.24
2022-08-30T10:56:26.982Z,25.25
2022-08-30T10:59:13.423Z,24.26
2022-08-30T11:02:11.408Z,25.12
2022-08-30T11:05:40.719Z,24.91
2022-08-30T11:08:46.141Z,24.79
2022-08-30T11:12:09.452Z,24.75
2022-08-30T11:14:56.240Z,24.72
2022-08-30T11:18:03.032Z,23.84
2022-08-30T11:20:53.323Z,24.74
2022-08-30T11:23:39.493Z,24.51
2022-08-30T11:26:49.954Z,24.63
2022-08-30T11:29:40.085Z,24.66
2022-08-30T11:33:07.919Z,24.73
2022-08-30T11:35:55.069Z,24.80
2022-08-30T11:38:40.379Z,24.89
2022-08-30T11:41:46.169Z,24.92
2022-08-30T11:44:33.457Z,24.94
2022-08-30T11:47:39.401Z,24.97
2022-08-30T11:50:34.567Z,24.69
2022-08-30T11:53:33.453Z,25.07
2022-08-30T11:56:34.265Z,24.20
2022-08-30T11:59:32.852Z,24.22
2022-08-30T12:02:46.804Z,25.11
2022-08-30T12:05:38.756Z,25.04
2022-08-30T12:08:34.123Z,24.98
2022-08-30T12:11:19.704Z,24.85
2022-08-30T12:14:09.355Z,24.62
2022-08-30T12:17:14.030Z,24.58
2022-08-30T12:20:00.556Z,24.52
2022-08-30T12:22:47.747Z,24.09
2022-08-30T12:25:35.068Z,24.14
2022-08-30T12:28:24.936Z,24.33
2022-08-30T12:31:17.987Z,24.45
2022-08-30T12:34:05.387Z,24.52
2022-08-30T12:37:04.499Z,23.61
2022-08-30T12:40:21.986Z,24.72
2022-08-30T12:43:26.578Z,24.62
2022-08-30T12:46:16.750Z,23.98
2022-08-30T12:49:02.676Z,24.78
2022-08-30T12:51:50.621Z,24.67
2022-08-30T12:54:40.205Z,24.65
2022-08-30T12:58:00.983Z,24.71
2022-08-30T13:00:47.244Z,23.81
2022-08-30T13:03:39.325Z,24.69
2022-08-30T13:06:49.206Z,24.65
2022-08-30T13:09:40.018Z,24.60
2022-08-30T13:12:28.131Z,24.42
2022-08-30T13:15:27.433Z,24.19
2022-08-30T13:18:27.499Z,24.66
2022-08-30T13:21:56.032Z,24.64
2022-08-30T13:24:41.674Z,24.51
2022-08-30T13:27:28.501Z,24.13
2022-08-30T13:30:18.463Z,23.42
2022-08-30T13:33:04.161Z,24.14
2022-08-30T13:35:49.954Z,24.17
2022-08-30T13:38:35.823Z,24.52
2022-08-30T13:41:21.715Z,24.64
2022-08-30T13:44:11.686Z,24.39
2022-08-30T13:47:32.178Z,24.41
2022-08-30T13:50:06.897Z,24.46
2022-08-30T13:52:55.297Z,24.47
2022-08-30T13:55:42.236Z,24.51
2022-08-30T13:58:27.882Z,24.49
2022-08-30T14:01:13.234Z,24.37
2022-08-30T14:04:15.698Z,24.48
2022-08-30T14:07:20.118Z,24.45
2022-08-30T14:13:14.531Z,23.98
2022-08-30T14:19:11.631Z,24.31
2022-08-30T14:21:57.210Z,24.20
2022-08-30T14:24:43.936Z,24.23
2022-08-30T14:27:30.000Z,24.25
2022-08-30T14:30:21.018Z,24.24
2022-08-30T14:33:07.503Z,24.17
2022-08-30T14:35:55.052Z,24.14
2022-08-30T14:38:40.985Z,24.10
2022-08-30T14:41:28.567Z,24.02
2022-08-30T14:44:16.450Z,23.02
2022-08-30T14:47:01.812Z,23.48
2022-08-30T14:49:48.436Z,23.89
2022-08-30T14:52:34.405Z,22.85
2022-08-30T14:55:19.892Z,23.83
2022-08-30T14:58:06.835Z,23.85
2022-08-30T15:00:52.913Z,23.62
2022-08-30T15:03:40.798Z,23.89
2022-08-30T15:06:28.176Z,23.89
2022-08-30T15:09:18.764Z,23.64
2022-08-30T15:12:09.148Z,23.27
2022-08-30T15:14:55.094Z,22.69
2022-08-30T15:17:41.151Z,23.58
2022-08-30T15:20:28.277Z,23.61
2022-08-30T15:23:16.833Z,23.57
2022-08-30T15:26:03.473Z,23.55
2022-08-30T15:28:51.668Z,23.55
2022-08-30T15:31:40.602Z,23.54
2022-08-30T15:34:28.336Z,23.50
2022-08-30T15:37:22.362Z,23.55
2022-08-30T15:40:09.442Z,23.60
2022-08-30T15:42:57.200Z,23.59
2022-08-30T15:45:43.893Z,23.19
2022-08-30T15:48:31.449Z,23.60
2022-08-30T15:51:16.817Z,23.59
2022-08-30T15:54:03.690Z,23.40
2022-08-30T15:56:50.358Z,23.34
2022-08-30T15:59:36.672Z,23.31
2022-08-30T16:02:22.388Z,23.61
2022-08-30T16:05:14.137Z,23.63
2022-08-30T16:07:59.713Z,23.44
2022-08-30T16:10:45.273Z,23.71
2022-08-30T16:13:33.868Z,22.89
2022-08-30T16:16:21.181Z,22.81
2022-08-30T16:19:06.989Z,23.57
2022-08-30T16:21:52.820Z,23.59
2022-08-30T16:24:38.722Z,23.76
2022-08-30T16:27:25.014Z,23.59
2022-08-30T16:30:11.854Z,23.59
2022-08-30T16:32:57.703Z,23.10
2022-08-30T16:35:43.327Z,23.26
2022-08-30T16:38:30.576Z,23.69
2022-08-30T16:41:21.414Z,22.73
2022-08-30T16:44:08.557Z,22.79
2022-08-30T16:46:57.333Z,23.44
2022-08-30T16:49:43.339Z,23.06
2022-08-30T16:52:29.071Z,23.35
2022-08-30T16:55:14.828Z,22.96
2022-08-30T16:58:00.563Z,23.09
2022-08-30T17:00:51.553Z,23.06
2022-08-30T17:03:38.142Z,22.99
2022-08-30T17:06:24.889Z,22.88
2022-08-30T17:09:11.258Z,21.96
2022-08-30T17:11:59.246Z,22.51
2022-08-30T17:14:45.574Z,22.63
2022-08-30T17:17:33.211Z,22.55
2022-08-30T17:20:19.044Z,22.49
2022-08-30T17:23:04.891Z,22.10
2022-08-30T17:25:50.529Z,22.35
2022-08-30T17:28:37.014Z,22.09
2022-08-30T17:31:22.595Z,20.84
2022-08-30T17:34:09.660Z,22.13
2022-08-30T17:37:00.009Z,21.90
2022-08-30T17:39:46.003Z,21.70
2022-08-30T17:42:31.832Z,20.74
2022-08-30T17:45:18.031Z,20.74
2022-08-30T17:48:04.424Z,20.62
2022-08-30T17:50:55.994Z,21.35
2022-08-30T17:53:42.198Z,21.49
2022-08-30T17:56:34.009Z,20.60
2022-08-30T17:59:24.956Z,21.29
2022-08-30T18:02:13.206Z,20.72
2022-08-30T18:05:00.538Z,21.26
2022-08-30T18:07:46.443Z,20.16
2022-08-30T18:10:34.724Z,21.25
2022-08-30T18:13:20.877Z,20.16
2022-08-30T18:16:08.888Z,20.33
2022-08-30T18:18:57.884Z,20.89
2022-08-30T18:21:43.726Z,21.03
2022-08-30T18:24:29.328Z,20.97
2022-08-30T18:27:17.038Z,20.78
2022-08-30T18:30:08.048Z,20.86
2022-08-30T18:32:59.623Z,20.61
2022-08-30T18:35:48.365Z,20.50
2022-08-30T18:38:34.852Z,20.30
2022-08-30T18:41:21.116Z,19.60
2022-08-30T18:44:26.676Z,19.92
2022-08-30T18:47:12.262Z,19.98
2022-08-30T18:49:58.569Z,20.11
2022-08-30T18:52:45.038Z,20.02
2022-08-30T18:55:31.884Z,19.75
2022-08-30T18:58:19.432Z,20.00
2022-08-30T19:01:05.320Z,19.87
2022-08-30T19:03:51.105Z,18.79
2022-08-30T19:06:42.114Z,19.85
2022-08-30T19:09:27.748Z,18.78
2022-08-30T19:12:13.240Z,19.89
2022-08-30T19:14:59.421Z,19.48
2022-08-30T19:17:46.116Z,19.52
2022-08-30T19:20:31.596Z,19.23
2022-08-30T19:23:18.198Z,19.44
2022-08-30T19:26:05.294Z,18.42
2022-08-30T19:28:50.988Z,19.38
2022-08-30T19:31:36.450Z,19.34
2022-08-30T19:34:22.127Z,19.28
2022-08-30T19:37:08.663Z,19.16
2022-08-30T19:40:00.742Z,19.15
2022-08-30T19:42:47.732Z,19.00
2022-08-30T19:45:34.102Z,18.88
2022-08-30T19:48:22.339Z,18.85
2022-08-30T19:51:15.119Z,17.89
2022-08-30T19:54:00.826Z,18.85
2022-08-30T19:56:46.344Z,18.81
2022-08-30T19:59:33.798Z,18.77
2022-08-30T20:02:21.982Z,18.28
2022-08-30T20:05:09.333Z,18.64
2022-08-30T20:07:55.453Z,18.20
2022-08-30T20:10:47.186Z,18.39
2022-08-30T20:13:38.987Z,17.93
2022-08-30T20:16:33.167Z,18.64
2022-08-30T20:19:27.630Z,17.59
2022-08-30T20:22:15.402Z,18.14
2022-08-30T20:25:02.407Z,17.90
2022-08-30T20:27:49.157Z,18.74
2022-08-30T20:30:34.932Z,17.98
2022-08-30T20:33:23.451Z,18.29
2022-08-30T20:36:11.279Z,17.46
2022-08-30T20:38:57.170Z,17.58
2022-08-30T20:41:42.898Z,18.62
2022-08-30T20:44:30.725Z,18.18
2022-08-30T20:47:17.434Z,18.48
2022-08-30T20:50:07.172Z,17.51
2022-08-30T20:52:59.521Z,18.35
2022-08-30T20:55:47.042Z,18.19
2022-08-30T20:58:32.580Z,17.98
2022-08-30T21:01:18.189Z,17.36
2022-08-30T21:04:06.221Z,17.85
2022-08-30T21:06:52.032Z,17.03
2022-08-30T21:09:37.950Z,17.32
2022-08-30T21:12:23.752Z,17.26
2022-08-30T21:15:33.727Z,18.05
2022-08-30T21:18:15.739Z,17.58
2022-08-30T21:21:14.424Z,17.06
2022-08-30T21:24:03.067Z,18.11
2022-08-30T21:26:48.636Z,17.08
2022-08-30T21:29:33.961Z,17.91
2022-08-30T21:32:19.384Z,17.97
2022-08-30T21:35:24.076Z,16.97
2022-08-30T21:38:09.811Z,17.02
2022-08-30T21:40:55.341Z,17.95
2022-08-30T21:43:41.088Z,18.16
2022-08-30T21:46:28.188Z,18.13
2022-08-30T21:49:17.037Z,18.10
2022-08-30T21:52:02.462Z,17.70
2022-08-30T21:54:48.829Z,17.99
2022-08-30T21:57:34.360Z,17.93
2022-08-30T22:00:20.967Z,17.35
2022-08-30T22:03:06.342Z,17.74
2022-08-30T22:05:52.773Z,17.75
2022-08-30T22:08:43.731Z,16.74
2022-08-30T22:11:31.317Z,17.30
2022-08-30T22:14:17.559Z,17.56
2022-08-30T22:17:03.011Z,16.04
2022-08-30T22:19:48.708Z,16.19
2022-08-30T22:22:34.178Z,17.23
2022-08-30T22:25:19.365Z,17.23
2022-08-30T22:28:04.825Z,16.60
2022-08-30T22:30:53.133Z,17.39
2022-08-30T22:33:39.263Z,16.44
2022-08-30T22:36:33.015Z,17.50
2022-08-30T22:39:18.600Z,17.50
2022-08-30T22:42:04.061Z,16.34
2022-08-30T22:44:49.547Z,17.40
2022-08-30T22:47:35.186Z,17.36
2022-08-30T22:50:20.725Z,17.45
2022-08-30T22:53:06.409Z,17.25
2022-08-30T22:55:52.062Z,17.21
2022-08-30T22:58:37.499Z,17.29
2022-08-30T23:01:30.539Z,17.00
2022-08-30T23:04:16.014Z,17.10
2022-08-30T23:07:01.364Z,16.09
2022-08-30T23:09:46.760Z,16.50
2022-08-30T23:12:36.769Z,16.43
2022-08-30T23:15:22.305Z,16.16
2022-08-30T23:18:08.087Z,16.28
2022-08-30T23:20:53.445Z,15.13
2022-08-30T23:23:57.961Z,15.26
2022-08-30T23:27:03.954Z,16.32
2022-08-30T23:30:08.101Z,15.73
2022-08-30T23:33:12.086Z,16.70
2022-08-30T23:36:16.104Z,15.58
2022-08-30T23:39:21.445Z,15.68
2022-08-30T23:42:25.489Z,16.61
2022-08-30T23:45:29.551Z,15.43
2022-08-30T23:48:33.515Z,16.79
2022-08-30T23:51:37.376Z,15.74
2022-08-30T23:54:42.539Z,15.85
2022-08-30T23:57:46.582Z,15.78
